Terminal Aerodrome Forecast
Issued by NWS

Home | Current Version | Previous Version | Text Only | Print | Product List | Glossary On
Versions: 1 2 3 4 5 6 7 8 9 10 11 12 13 14 15 16 17 18 19 20 21
543
FTUS43 KICT 292328
TAFCNU
TAF
KCNU 292328Z 3000/3024 22015KT P6SM VCTS SCT015 BKN040CB
     FM300200 11006KT P6SM -RA BKN060
     FM300600 07006KT P6SM VCSH BKN020
     FM300700 09007KT P6SM VCSH BKN008
     FM301100 32008KT 4SM BR VCSH BKN003
     FM301200 26006KT 5SM -SHRA OVC008
     FM301700 30009KT 5SM -SHRA OVC015=

USA.gov is the U.S. government's official web portal to all federal, state and local government web resources and services.